Niceville, Florida
Current Conditions -  °F | °C
As of 1:55 AM on Saturday 20 Dec 2014 (Local Time) from KVPS Reporting Station
Drizzle Drizzle  
Wind Chill: 44°   Ceiling: 1400
Heat Index: 49°   Visibility: 9mi
Dew Point: 47°   Wind: 13mph
Humidity: 94%   Direction: 60°ENE
Pressure: 30.06"   Gusts: NA
Location:  30.52°N, 86.49°W
Report Text: KVPS 200755Z 06011KT 9SM -DZ SCT007 BKN014 OVC045 09/08 A3006 RMK AO2A SLP186 P0001 T00930084 $
Loading
Personal Weather Stations






























Interactive Weather Map New forecast layout! Learn more

10-Day Weather Forecast

Advertisements
Track Severe Weather on mobile